Time;durP1;ratioP1;P1;durP2;ratioP2;P2;SDS_P1;SDS_P2;PMS_P1;PMS_P2;Temp;Humidity;BMP_temperature;BMP_pressure;BME280_temperature;BME280_humidity;BME280_pressure;Samples;Min_cycle;Max_cycle;Signal;HPM_P1;HPM_P2
2022/04/05 00:01:23;;;;;;;3.15;2.30;;;12.00;70.30;;;;;;5026095;28;20732;-74
2022/04/05 00:03:49;;;;;;;2.70;2.40;;;12.00;70.30;;;;;;5043339;28;20090;-74
2022/04/05 00:06:15;;;;;;;3.53;2.42;;;12.00;70.30;;;;;;5031984;28;20402;-74
2022/04/05 00:08:41;;;;;;;2.97;2.38;;;12.00;70.30;;;;;;5030409;28;20061;-75
2022/04/05 00:11:07;;;;;;;2.47;2.00;;;12.00;70.30;;;;;;5015583;28;20120;-75
2022/04/05 00:13:32;;;;;;;2.83;2.10;;;12.00;70.30;;;;;;5031551;28;20550;-74
2022/04/05 00:15:58;;;;;;;2.53;2.10;;;12.00;70.30;;;;;;5022848;28;20454;-76
2022/04/05 00:18:24;;;;;;;2.50;2.20;;;12.00;70.30;;;;;;5042521;28;20428;-74
2022/04/05 00:20:49;;;;;;;2.22;1.92;;;12.10;70.30;;;;;;5033646;28;20490;-75
2022/04/05 00:23:15;;;;;;;2.17;1.80;;;12.10;70.40;;;;;;5030432;28;20029;-75
2022/04/05 00:25:41;;;;;;;2.92;2.08;;;12.10;70.50;;;;;;5015181;28;20034;-75
2022/04/05 00:28:07;;;;;;;2.17;1.80;;;12.10;70.40;;;;;;5030552;28;20045;-74
2022/04/05 00:30:33;;;;;;;2.00;1.83;;;12.10;70.50;;;;;;5021549;28;20025;-74
2022/04/05 00:32:59;;;;;;;2.67;2.17;;;12.10;70.40;;;;;;5030655;28;20029;-75
2022/04/05 00:35:24;;;;;;;2.47;1.92;;;12.10;70.40;;;;;;5037906;28;20033;-75
2022/04/05 00:37:51;;;;;;;2.63;2.03;;;12.10;70.40;;;;;;5030412;28;20079;-75
2022/04/05 00:40:16;;;;;;;2.38;1.70;;;12.10;70.40;;;;;;5010605;28;20046;-74
2022/04/05 00:42:42;;;;;;;2.17;1.75;;;12.10;70.40;;;;;;5017695;28;20029;-74
2022/04/05 00:45:09;;;;;;;1.83;1.63;;;12.10;70.40;;;;;;5042164;28;20036;-74
2022/04/05 00:47:36;;;;;;;1.63;1.50;;;12.10;70.50;;;;;;5034017;28;20033;-74
2022/04/05 00:50:05;;;;;;;1.60;1.50;;;12.10;70.50;;;;;;5030088;28;20025;-74
2022/04/05 00:52:31;;;;;;;1.70;1.52;;;12.10;70.60;;;;;;5031584;28;20032;-75
2022/04/05 00:54:59;;;;;;;1.70;1.50;;;12.10;70.60;;;;;;5035560;28;20385;-74
2022/04/05 00:57:27;;;;;;;1.35;1.25;;;12.20;70.60;;;;;;5030860;28;20478;-75
2022/04/05 01:00:00;;;;;;;1.50;1.27;;;12.10;70.60;;;;;;5031342;28;20076;-76
2022/04/05 01:02:29;;;;;;;1.50;1.40;;;12.10;70.60;;;;;;5014302;28;20061;-74
2022/04/05 01:04:55;;;;;;;1.30;1.20;;;12.10;70.60;;;;;;5014327;28;20049;-74
2022/04/05 01:07:24;;;;;;;1.35;1.25;;;12.10;70.60;;;;;;5028896;28;20505;-74
2022/04/05 01:09:54;;;;;;;1.33;1.23;;;12.10;70.60;;;;;;5046589;28;20041;-75
2022/04/05 01:12:21;;;;;;;1.00;1.00;;;12.10;70.60;;;;;;5024407;28;20028;-74
2022/04/05 01:14:48;;;;;;;1.20;1.10;;;12.10;70.60;;;;;;5036611;28;20033;-75
2022/04/05 01:17:14;;;;;;;1.30;1.20;;;12.10;70.70;;;;;;5032232;28;20024;-74
2022/04/05 01:19:40;;;;;;;0.90;0.90;;;12.10;70.60;;;;;;5037244;28;20068;-75
2022/04/05 01:22:06;;;;;;;1.48;1.17;;;12.10;70.60;;;;;;5029268;28;20033;-74
2022/04/05 01:24:32;;;;;;;1.10;1.02;;;12.10;70.60;;;;;;5033215;28;20092;-74
2022/04/05 01:26:59;;;;;;;1.30;1.20;;;12.10;70.70;;;;;;5014004;28;20026;-74
2022/04/05 01:29:27;;;;;;;2.20;1.02;;;12.10;70.70;;;;;;5010844;28;20033;-75
2022/04/05 01:31:59;;;;;;;0.85;0.85;;;12.10;70.70;;;;;;5014656;28;20458;-74
2022/04/05 01:34:27;;;;;;;1.00;1.00;;;12.10;70.70;;;;;;5013050;28;20048;-74
2022/04/05 01:36:59;;;;;;;1.20;1.10;;;12.10;70.80;;;;;;5038257;28;20116;-75
2022/04/05 01:39:27;;;;;;;1.15;1.10;;;12.10;70.80;;;;;;5032461;28;20377;-74
2022/04/05 01:41:57;;;;;;;1.35;0.98;;;12.10;70.80;;;;;;5034204;28;20048;-74
2022/04/05 01:44:24;;;;;;;1.17;1.00;;;12.10;70.80;;;;;;5038567;28;20471;-75
2022/04/05 01:46:50;;;;;;;1.00;1.00;;;12.00;70.80;;;;;;5031328;28;20033;-75
2022/04/05 01:49:16;;;;;;;1.20;1.10;;;12.00;70.80;;;;;;5011938;28;20035;-74
2022/04/05 01:51:44;;;;;;;1.20;1.13;;;12.00;70.80;;;;;;5034635;28;20374;-74
2022/04/05 01:54:11;;;;;;;1.23;1.08;;;12.10;70.90;;;;;;5035564;28;20021;-74
2022/04/05 01:56:44;;;;;;;1.08;1.08;;;12.10;70.90;;;;;;5020599;28;20154;-74
2022/04/05 01:59:12;;;;;;;1.65;1.10;;;12.00;70.90;;;;;;5038469;28;20049;-74
2022/04/05 02:01:37;;;;;;;1.67;0.98;;;12.00;70.90;;;;;;5036258;28;20512;-75
2022/04/05 02:04:04;;;;;;;0.80;0.80;;;12.00;70.90;;;;;;5020726;28;20100;-74
2022/04/05 02:06:32;;;;;;;0.90;0.90;;;12.00;70.90;;;;;;5035116;28;20553;-74
2022/04/05 02:08:57;;;;;;;1.20;1.10;;;12.00;70.80;;;;;;5017247;28;20116;-75
2022/04/05 02:11:23;;;;;;;0.80;0.80;;;12.00;70.80;;;;;;5014159;28;20025;-75
2022/04/05 02:13:52;;;;;;;1.48;1.10;;;12.00;70.80;;;;;;5032211;28;20115;-74
2022/04/05 02:16:18;;;;;;;1.10;1.00;;;12.00;70.90;;;;;;4999081;28;20518;-75
2022/04/05 02:18:44;;;;;;;0.90;0.90;;;12.00;70.90;;;;;;5040298;28;20037;-75
2022/04/05 02:21:12;;;;;;;1.10;1.00;;;12.00;70.80;;;;;;5035733;28;20028;-74
2022/04/05 02:23:38;;;;;;;1.05;1.00;;;11.90;70.80;;;;;;4998861;28;20026;-74
2022/04/05 02:26:09;;;;;;;1.00;1.00;;;11.90;70.80;;;;;;5014145;28;20021;-75
2022/04/05 02:28:39;;;;;;;0.90;0.90;;;11.90;70.80;;;;;;5028691;28;20029;-74
2022/04/05 02:31:10;;;;;;;0.90;0.90;;;11.90;70.80;;;;;;5014430;28;20044;-75
2022/04/05 02:33:37;;;;;;;1.30;1.20;;;11.90;70.80;;;;;;5028301;28;20108;-74
2022/04/05 02:36:08;;;;;;;0.90;0.90;;;11.90;70.90;;;;;;5027741;28;20116;-75
2022/04/05 02:38:36;;;;;;;1.20;1.10;;;11.90;70.90;;;;;;5036356;28;20047;-75
2022/04/05 02:41:05;;;;;;;0.88;0.88;;;11.90;70.90;;;;;;5011958;28;20462;-74
2022/04/05 02:43:33;;;;;;;1.05;1.00;;;11.90;70.90;;;;;;5038368;28;20112;-75
2022/04/05 02:45:59;;;;;;;1.10;1.00;;;11.90;70.90;;;;;;5032394;28;20491;-75
2022/04/05 02:48:27;;;;;;;0.90;0.90;;;11.90;70.90;;;;;;5036443;28;20202;-74
2022/04/05 02:50:54;;;;;;;1.00;1.00;;;11.90;70.90;;;;;;5008456;28;20026;-75
2022/04/05 02:53:20;;;;;;;0.90;0.90;;;11.80;71.50;;;;;;5003739;28;20498;-74
2022/04/05 02:55:47;;;;;;;1.00;1.00;;;11.90;71.00;;;;;;4997633;28;20104;-74
2022/04/05 02:58:13;;;;;;;1.10;1.00;;;11.80;70.90;;;;;;5029267;28;20022;-75
2022/04/05 03:00:40;;;;;;;0.82;0.82;;;11.80;70.90;;;;;;5015036;28;20524;-75
2022/04/05 03:03:12;;;;;;;0.95;0.95;;;11.80;70.90;;;;;;5016488;28;20033;-74
2022/04/05 03:05:45;;;;;;;1.17;1.00;;;11.80;70.90;;;;;;5036745;28;20497;-75
2022/04/05 03:08:11;;;;;;;0.98;0.98;;;11.80;71.00;;;;;;5028729;28;20037;-74
2022/04/05 03:10:40;;;;;;;1.40;1.00;;;11.80;71.00;;;;;;5035378;28;20040;-75
2022/04/05 03:13:07;;;;;;;1.02;1.02;;;11.80;71.00;;;;;;4996241;28;20064;-75
2022/04/05 03:15:33;;;;;;;1.23;1.10;;;11.80;71.00;;;;;;5010897;28;20033;-74
2022/04/05 03:18:01;;;;;;;1.55;1.02;;;11.80;71.00;;;;;;5032742;28;20025;-74
2022/04/05 03:20:31;;;;;;;1.67;1.10;;;11.80;71.00;;;;;;5035905;28;20568;-75
2022/04/05 03:23:00;;;;;;;0.90;0.90;;;11.80;71.00;;;;;;5034862;28;20533;-75
2022/04/05 03:25:29;;;;;;;1.23;1.10;;;11.70;71.00;;;;;;5011385;28;20083;-74
2022/04/05 03:28:01;;;;;;;1.42;1.33;;;11.80;71.10;;;;;;5014906;28;20038;-75
2022/04/05 03:30:27;;;;;;;1.25;1.17;;;11.70;71.70;;;;;;5028023;28;20439;-76
2022/04/05 03:32:55;;;;;;;1.10;1.00;;;11.80;71.10;;;;;;5030861;28;20033;-74
2022/04/05 03:35:21;;;;;;;1.25;1.15;;;11.70;71.70;;;;;;5018507;28;20061;-74
2022/04/05 03:37:48;;;;;;;0.93;0.93;;;11.70;71.10;;;;;;5021290;28;20094;-74
2022/04/05 03:40:15;;;;;;;1.30;1.20;;;11.70;71.10;;;;;;5014524;28;20040;-74
2022/04/05 03:42:43;;;;;;;1.25;1.10;;;11.70;71.10;;;;;;5013919;28;20029;-75
2022/04/05 03:45:10;;;;;;;1.40;1.30;;;11.70;71.10;;;;;;5002153;28;20083;-74
2022/04/05 03:47:38;;;;;;;1.20;1.15;;;11.70;71.20;;;;;;5015449;28;20053;-75
2022/04/05 03:50:04;;;;;;;1.50;1.20;;;11.70;71.10;;;;;;5015479;28;20489;-74
2022/04/05 03:52:33;;;;;;;1.40;1.20;;;11.70;71.10;;;;;;5020121;28;20121;-75
2022/04/05 03:55:00;;;;;;;1.52;1.20;;;11.70;71.20;;;;;;5021852;28;20029;-74
2022/04/05 03:57:26;;;;;;;1.30;1.20;;;11.70;71.10;;;;;;5018834;28;20029;-75
2022/04/05 03:59:55;;;;;;;1.15;1.10;;;11.70;71.10;;;;;;5000844;28;20406;-76
2022/04/05 04:02:21;;;;;;;1.25;1.15;;;11.70;71.20;;;;;;5013608;28;20044;-74
2022/04/05 04:04:47;;;;;;;1.38;1.27;;;11.60;71.20;;;;;;5031513;28;20540;-75
2022/04/05 04:07:14;;;;;;;1.15;1.08;;;11.60;71.10;;;;;;5022211;28;20030;-76
2022/04/05 04:09:41;;;;;;;1.40;1.15;;;11.60;71.20;;;;;;5016552;28;20466;-74
2022/04/05 04:12:09;;;;;;;1.20;1.20;;;11.60;71.10;;;;;;5015462;28;20128;-75
2022/04/05 04:14:35;;;;;;;2.17;1.25;;;11.60;71.20;;;;;;5022330;28;20022;-75
2022/04/05 04:17:08;;;;;;;1.38;1.20;;;11.60;71.20;;;;;;5037445;28;20025;-75
2022/04/05 04:19:34;;;;;;;1.55;1.30;;;11.60;71.20;;;;;;5019924;28;20585;-75
2022/04/05 04:22:01;;;;;;;1.05;1.00;;;11.60;71.20;;;;;;5030310;28;20474;-72
2022/04/05 04:24:29;;;;;;;1.35;1.20;;;11.60;71.20;;;;;;4985263;28;20117;-74
2022/04/05 04:26:54;;;;;;;1.40;1.30;;;11.60;71.20;;;;;;5017975;28;20029;-74
2022/04/05 04:29:20;;;;;;;1.20;1.10;;;11.60;71.20;;;;;;5032850;28;20048;-75
2022/04/05 04:31:46;;;;;;;1.63;1.30;;;11.60;71.20;;;;;;5018867;28;20044;-75
2022/04/05 04:34:12;;;;;;;1.85;1.10;;;11.60;71.20;;;;;;5046288;28;20124;-75
2022/04/05 04:36:39;;;;;;;1.35;1.20;;;11.60;71.20;;;;;;5013077;28;20128;-75
2022/04/05 04:39:05;;;;;;;1.90;1.30;;;11.60;71.20;;;;;;5004770;28;20067;-74
2022/04/05 04:41:31;;;;;;;1.20;1.10;;;11.50;71.20;;;;;;5022393;28;20057;-75
2022/04/05 04:43:56;;;;;;;1.67;1.20;;;11.50;71.20;;;;;;5015059;28;20071;-75
2022/04/05 04:46:22;;;;;;;0.95;0.95;;;11.50;71.20;;;;;;5030587;28;20559;-75
2022/04/05 04:48:48;;;;;;;1.23;1.00;;;11.50;71.20;;;;;;5034856;28;20152;-74
2022/04/05 04:51:14;;;;;;;2.20;1.27;;;11.50;71.20;;;;;;5023505;28;20481;-74
2022/04/05 04:53:40;;;;;;;1.50;1.13;;;11.50;71.20;;;;;;4997198;28;20018;-73
2022/04/05 04:56:06;;;;;;;1.60;1.27;;;11.50;71.20;;;;;;5020494;28;20029;-76
2022/04/05 04:58:32;;;;;;;1.40;1.30;;;11.50;71.30;;;;;;5023749;28;20034;-74
2022/04/05 05:00:58;;;;;;;1.90;1.30;;;11.50;71.90;;;;;;5036770;28;20126;-74
2022/04/05 05:03:23;;;;;;;1.95;1.20;;;11.50;71.30;;;;;;5019046;28;20113;-73
2022/04/05 05:05:49;;;;;;;1.65;1.30;;;11.50;71.30;;;;;;5012785;28;20057;-74
2022/04/05 05:08:15;;;;;;;1.67;1.23;;;11.50;71.30;;;;;;5003561;28;20696;-75
2022/04/05 05:10:40;;;;;;;1.92;1.55;;;11.50;71.30;;;;;;5028265;28;20064;-74
2022/04/05 05:13:07;;;;;;;2.75;1.50;;;11.50;71.30;;;;;;5002902;28;20041;-74
2022/04/05 05:15:33;;;;;;;1.00;1.00;;;11.50;71.30;;;;;;5028769;28;20030;-75
2022/04/05 05:17:59;;;;;;;1.55;1.45;;;11.50;71.30;;;;;;5029259;28;20040;-74
2022/04/05 05:20:24;;;;;;;1.85;1.40;;;11.50;71.30;;;;;;5002674;28;20145;-73
2022/04/05 05:22:50;;;;;;;1.77;1.38;;;11.50;71.30;;;;;;5034624;28;20033;-73
2022/04/05 05:25:16;;;;;;;1.30;1.20;;;11.50;71.30;;;;;;5031607;28;20038;-73
2022/04/05 05:27:42;;;;;;;1.60;1.42;;;11.50;71.30;;;;;;5024617;28;20535;-73
2022/04/05 05:30:09;;;;;;;1.50;1.40;;;11.50;71.30;;;;;;5041095;28;20033;-73
2022/04/05 05:32:45;;;;;;;1.33;1.23;;;11.50;71.30;;;;;;5030893;28;20021;-74
2022/04/05 05:35:13;;;;;;;1.85;1.40;;;11.40;71.30;;;;;;5039886;28;20026;-73
2022/04/05 05:37:39;;;;;;;1.58;1.48;;;11.40;71.20;;;;;;5045510;28;20034;-73
2022/04/05 05:40:06;;;;;;;1.73;1.52;;;11.40;71.20;;;;;;5034203;28;20037;-73
2022/04/05 05:42:32;;;;;;;1.60;1.50;;;11.40;71.30;;;;;;5030719;28;20037;-73
2022/04/05 05:44:58;;;;;;;1.83;1.40;;;11.40;71.30;;;;;;5036454;28;20063;-73
2022/04/05 05:47:24;;;;;;;2.80;1.90;;;11.40;71.30;;;;;;5021610;28;20029;-76
2022/04/05 05:49:49;;;;;;;2.15;1.65;;;11.40;71.30;;;;;;5035514;28;20049;-74
2022/04/05 05:52:15;;;;;;;1.77;1.60;;;11.40;71.30;;;;;;5029490;28;20409;-73
2022/04/05 05:54:41;;;;;;;1.60;1.50;;;11.40;71.30;;;;;;5038771;28;20049;-73
2022/04/05 05:57:07;;;;;;;1.90;1.52;;;11.40;71.40;;;;;;5008338;28;20476;-73
2022/04/05 05:59:33;;;;;;;1.58;1.42;;;11.40;71.40;;;;;;5021491;28;20029;-74
2022/04/05 06:01:59;;;;;;;1.77;1.38;;;11.40;71.40;;;;;;5031924;28;20041;-74
2022/04/05 06:04:25;;;;;;;1.55;1.38;;;11.40;71.40;;;;;;5037669;28;20037;-74
2022/04/05 06:06:50;;;;;;;2.70;1.70;;;11.40;71.40;;;;;;5037343;28;20041;-74
2022/04/05 06:09:16;;;;;;;2.40;1.77;;;11.40;71.50;;;;;;5020634;28;20459;-73
2022/04/05 06:11:42;;;;;;;1.88;1.67;;;11.40;71.50;;;;;;5020669;28;20026;-74
2022/04/05 06:14:07;;;;;;;1.75;1.65;;;11.40;71.50;;;;;;5040727;28;20553;-73
2022/04/05 06:16:33;;;;;;;2.45;1.60;;;11.40;71.50;;;;;;5038157;28;20048;-73
2022/04/05 06:18:59;;;;;;;2.72;1.90;;;11.40;71.50;;;;;;5036993;28;20132;-73
2022/04/05 06:21:24;;;;;;;2.72;2.08;;;11.40;71.50;;;;;;5012106;28;20037;-74
2022/04/05 06:23:52;;;;;;;3.03;2.03;;;11.40;71.50;;;;;;5021220;28;20461;-74
2022/04/05 06:26:18;;;;;;;3.10;2.10;;;11.40;71.50;;;;;;5029241;28;20371;-73
2022/04/05 06:28:44;;;;;;;3.33;2.10;;;11.40;71.40;;;;;;5014327;28;20053;-73
2022/04/05 06:31:09;;;;;;;2.28;1.98;;;11.40;71.40;;;;;;5038103;28;20068;-74
2022/04/05 06:33:35;;;;;;;2.92;2.20;;;11.40;71.40;;;;;;5020732;28;20252;-75
2022/04/05 06:36:01;;;;;;;3.75;2.22;;;11.40;71.40;;;;;;5028198;28;20029;-75
2022/04/05 06:38:28;;;;;;;3.08;2.28;;;11.40;71.40;;;;;;5029191;28;20060;-73
2022/04/05 06:40:54;;;;;;;2.95;2.20;;;11.40;71.40;;;;;;5029647;28;20468;-73
2022/04/05 06:43:25;;;;;;;4.00;2.40;;;11.40;71.40;;;;;;5031321;28;20029;-73
2022/04/05 06:45:51;;;;;;;4.40;2.55;;;11.40;71.40;;;;;;5019803;28;20120;-73
2022/04/05 06:48:18;;;;;;;4.63;2.70;;;11.40;71.40;;;;;;4997347;28;20033;-74
2022/04/05 06:50:44;;;;;;;4.47;2.83;;;11.40;71.40;;;;;;5044055;28;20381;-74
2022/04/05 06:53:10;;;;;;;4.25;2.72;;;11.40;71.40;;;;;;5033940;28;20024;-75
2022/04/05 06:55:37;;;;;;;3.30;2.53;;;11.40;72.10;;;;;;5037701;28;20455;-75
2022/04/05 06:58:03;;;;;;;3.90;2.65;;;11.40;71.40;;;;;;5037055;28;20017;-76
2022/04/05 07:00:29;;;;;;;3.85;2.70;;;11.50;71.50;;;;;;5020294;28;20037;-75
2022/04/05 07:02:56;;;;;;;3.92;2.70;;;11.50;71.50;;;;;;5044319;28;20025;-74
2022/04/05 07:05:23;;;;;;;4.40;3.08;;;11.50;71.50;;;;;;5037969;28;20034;-76
2022/04/05 07:07:49;;;;;;;4.07;2.92;;;11.50;71.50;;;;;;5040251;28;20026;-74
2022/04/05 07:10:16;;;;;;;4.50;3.00;;;11.50;71.50;;;;;;5040248;28;20025;-76
2022/04/05 07:12:43;;;;;;;4.00;2.92;;;11.50;71.50;;;;;;5040412;28;20109;-75
2022/04/05 07:15:11;;;;;;;3.97;2.90;;;11.50;71.50;;;;;;5037999;28;20037;-75
2022/04/05 07:17:37;;;;;;;5.00;3.20;;;11.50;71.50;;;;;;5033502;28;20364;-74
2022/04/05 07:20:07;;;;;;;4.68;3.42;;;11.50;71.50;;;;;;5011656;28;20494;-74
2022/04/05 07:22:33;;;;;;;5.07;3.47;;;11.50;71.50;;;;;;5035381;28;20488;-73
2022/04/05 07:24:58;;;;;;;4.55;3.28;;;11.60;71.60;;;;;;5011553;28;20033;-74
2022/04/05 07:27:24;;;;;;;5.35;3.33;;;11.60;71.60;;;;;;5030703;28;20068;-75
2022/04/05 07:29:50;;;;;;;4.70;3.13;;;11.60;71.60;;;;;;5040722;28;20032;-74
2022/04/05 07:32:16;;;;;;;4.15;3.08;;;11.60;71.60;;;;;;5036346;28;20034;-74
2022/04/05 07:34:42;;;;;;;4.78;3.00;;;11.60;71.60;;;;;;5037199;28;20029;-74
2022/04/05 07:37:11;;;;;;;5.95;3.35;;;11.60;71.60;;;;;;5040592;28;20089;-74
2022/04/05 07:39:40;;;;;;;4.63;3.40;;;11.60;71.60;;;;;;5025048;28;20033;-74
2022/04/05 07:42:08;;;;;;;5.35;3.38;;;11.70;71.60;;;;;;5032799;28;20029;-74
2022/04/05 07:44:33;;;;;;;4.85;3.50;;;11.70;71.70;;;;;;5024571;28;20529;-74
2022/04/05 07:47:00;;;;;;;5.80;3.55;;;11.70;71.70;;;;;;5043528;28;20110;-75
2022/04/05 07:49:26;;;;;;;5.45;3.50;;;11.70;71.70;;;;;;5043120;28;20075;-75
2022/04/05 07:51:52;;;;;;;4.60;3.38;;;11.70;71.70;;;;;;5034984;28;20044;-74
2022/04/05 07:54:18;;;;;;;6.00;3.47;;;11.70;71.70;;;;;;5031750;28;20021;-75
2022/04/05 07:56:44;;;;;;;4.53;3.17;;;11.70;71.70;;;;;;5020234;28;20458;-75
2022/04/05 07:59:10;;;;;;;4.80;2.95;;;11.80;71.70;;;;;;5039927;28;20021;-74
2022/04/05 08:01:35;;;;;;;4.18;3.10;;;11.80;71.70;;;;;;5016824;28;20029;-75
2022/04/05 08:04:01;;;;;;;4.60;3.13;;;11.80;71.70;;;;;;5023554;28;20470;-74
2022/04/05 08:06:28;;;;;;;5.95;3.63;;;11.80;71.70;;;;;;5040997;28;20068;-75
2022/04/05 08:08:54;;;;;;;4.85;3.20;;;11.80;71.80;;;;;;5023205;28;20060;-74
2022/04/05 08:11:20;;;;;;;4.70;3.10;;;11.80;71.70;;;;;;5015102;28;20068;-74
2022/04/05 08:13:46;;;;;;;4.53;3.10;;;11.90;71.80;;;;;;5006525;28;20177;-75
2022/04/05 08:16:12;;;;;;;4.85;2.95;;;11.90;71.80;;;;;;5047365;28;20033;-75
2022/04/05 08:18:38;;;;;;;4.43;3.10;;;11.90;71.80;;;;;;5019741;28;20032;-74
2022/04/05 08:21:04;;;;;;;5.00;3.20;;;11.90;71.70;;;;;;5042231;28;20129;-75
2022/04/05 08:23:29;;;;;;;4.93;3.33;;;11.90;71.80;;;;;;5030820;28;20041;-76
2022/04/05 08:25:55;;;;;;;3.83;2.63;;;11.90;71.70;;;;;;5022665;28;20030;-74
2022/04/05 08:28:21;;;;;;;4.60;3.22;;;12.00;71.70;;;;;;5018462;28;20026;-76
2022/04/05 08:30:47;;;;;;;4.50;2.90;;;12.00;71.70;;;;;;5029668;28;20068;-75
2022/04/05 08:33:12;;;;;;;4.53;2.90;;;12.00;71.70;;;;;;5039632;28;20033;-74
2022/04/05 08:35:39;;;;;;;4.15;2.75;;;12.00;71.70;;;;;;5032239;28;20160;-74
2022/04/05 08:38:05;;;;;;;5.05;3.25;;;12.10;71.80;;;;;;5038795;28;20112;-74
2022/04/05 08:40:31;;;;;;;5.35;3.22;;;12.10;71.80;;;;;;5034505;28;20033;-75
2022/04/05 08:42:58;;;;;;;3.53;2.67;;;12.10;71.70;;;;;;5034363;28;20558;-75
2022/04/05 08:45:26;;;;;;;4.35;2.75;;;12.10;71.70;;;;;;5043135;28;20596;-74
2022/04/05 08:47:55;;;;;;;3.45;2.45;;;12.10;71.80;;;;;;5041465;28;20515;-74
2022/04/05 08:50:32;;;;;;;3.72;2.70;;;12.10;71.70;;;;;;5035556;28;20037;-74
2022/04/05 08:53:00;;;;;;;4.18;2.58;;;12.20;71.80;;;;;;5032914;28;20029;-76
2022/04/05 08:55:29;;;;;;;4.13;2.88;;;12.20;71.80;;;;;;5015322;28;20026;-74
2022/04/05 08:57:56;;;;;;;4.18;2.80;;;12.20;71.70;;;;;;5045562;28;20038;-75
2022/04/05 09:00:23;;;;;;;4.50;2.50;;;12.20;71.70;;;;;;5021712;28;20037;-74
2022/04/05 09:02:58;;;;;;;4.93;2.70;;;12.20;71.70;;;;;;5030340;28;20030;-74
2022/04/05 09:05:43;;;;;;;3.15;2.30;;;12.30;71.80;;;;;;5042566;28;20029;-74
2022/04/05 09:08:23;;;;;;;4.43;2.85;;;12.30;71.80;;;;;;5031698;28;20026;-74
2022/04/05 09:10:51;;;;;;;5.05;2.58;;;12.30;71.70;;;;;;5037655;28;20105;-74
2022/04/05 09:13:19;;;;;;;3.40;2.55;;;12.30;71.70;;;;;;5039480;28;20049;-75
2022/04/05 09:15:48;;;;;;;3.30;2.47;;;12.40;71.80;;;;;;5035913;28;20402;-74
2022/04/05 09:18:14;;;;;;;3.85;2.40;;;12.40;71.80;;;;;;5039922;28;20040;-74
2022/04/05 09:20:48;;;;;;;3.83;2.58;;;12.40;71.70;;;;;;5017829;28;20056;-74
2022/04/05 09:23:27;;;;;;;3.87;2.80;;;12.40;71.80;;;;;;5032729;28;20031;-74
2022/04/05 09:26:03;;;;;;;4.40;2.30;;;12.40;71.70;;;;;;5040797;28;20421;-74
2022/04/05 09:28:38;;;;;;;3.67;2.67;;;12.50;71.70;;;;;;5021372;28;20393;-75
2022/04/05 09:31:07;;;;;;;3.65;2.58;;;12.50;71.70;;;;;;5039433;28;20112;-73
2022/04/05 09:33:35;;;;;;;3.28;2.17;;;12.50;71.70;;;;;;5022512;28;20026;-75
2022/04/05 09:36:15;;;;;;;3.80;2.58;;;12.50;71.70;;;;;;5040181;28;20056;-75
2022/04/05 09:38:43;;;;;;;3.30;2.30;;;12.60;71.80;;;;;;5037986;28;20071;-75
2022/04/05 09:41:13;;;;;;;4.05;2.42;;;12.60;71.70;;;;;;5030921;28;20030;-74
2022/04/05 09:43:58;;;;;;;4.30;2.58;;;12.60;71.70;;;;;;5040422;28;20525;-75
2022/04/05 09:46:24;;;;;;;2.67;2.40;;;12.60;71.80;;;;;;5034530;28;20049;-74
2022/04/05 09:49:11;;;;;;;3.70;2.42;;;12.70;71.70;;;;;;5038771;28;20029;-75
2022/04/05 09:51:45;;;;;;;3.72;2.40;;;12.70;71.80;;;;;;5037650;28;20033;-74
2022/04/05 09:54:22;;;;;;;3.13;1.95;;;12.70;71.70;;;;;;5030119;28;20029;-74
2022/04/05 09:56:48;;;;;;;2.92;2.10;;;12.80;71.80;;;;;;5039655;28;20033;-77
2022/04/05 09:59:18;;;;;;;2.97;2.20;;;12.80;71.70;;;;;;5036040;28;20057;-74
2022/04/05 10:01:49;;;;;;;3.15;2.10;;;12.80;71.70;;;;;;5012335;28;20033;-74
2022/04/05 10:04:16;;;;;;;2.75;2.05;;;12.80;71.70;;;;;;5036789;28;20156;-74
2022/04/05 10:06:46;;;;;;;2.88;2.15;;;12.90;71.70;;;;;;5035782;28;20040;-74
2022/04/05 10:09:13;;;;;;;2.55;1.98;;;12.90;71.70;;;;;;5031818;28;20041;-74
2022/04/05 10:11:41;;;;;;;3.42;1.98;;;12.90;71.70;;;;;;5031585;28;20083;-78
2022/04/05 10:14:09;;;;;;;2.75;2.20;;;13.00;71.70;;;;;;5040047;28;20024;-75
2022/04/05 10:16:35;;;;;;;2.67;2.00;;;13.00;71.70;;;;;;5034579;28;20544;-76
2022/04/05 10:19:05;;;;;;;2.97;2.17;;;13.00;71.70;;;;;;5028691;28;20473;-76
2022/04/05 10:21:37;;;;;;;2.53;2.00;;;13.00;71.70;;;;;;5013761;28;20057;-76
2022/04/05 10:24:06;;;;;;;3.20;1.88;;;13.10;71.70;;;;;;5036079;28;20038;-77
2022/04/05 10:26:38;;;;;;;2.72;2.08;;;13.10;71.70;;;;;;5048472;28;20030;-77
2022/04/05 10:29:09;;;;;;;2.83;2.03;;;13.10;71.70;;;;;;5030023;28;20499;-77
2022/04/05 10:31:55;;;;;;;3.60;2.10;;;13.20;71.70;;;;;;5033028;28;20032;-74
2022/04/05 10:34:41;;;;;;;2.53;2.03;;;13.20;71.80;;;;;;5038238;28;20028;-74
2022/04/05 10:37:08;;;;;;;2.88;2.08;;;13.20;71.80;;;;;;5034876;28;20040;-74
2022/04/05 10:39:34;;;;;;;3.17;2.10;;;13.20;71.60;;;;;;5033250;28;20037;-74
2022/04/05 10:42:08;;;;;;;2.78;2.10;;;13.20;71.70;;;;;;5030198;28;20072;-74
2022/04/05 10:44:46;;;;;;;3.20;2.08;;;13.30;71.80;;;;;;5044724;28;20117;-74
2022/04/05 10:47:12;;;;;;;3.13;2.13;;;13.30;72.40;;;;;;5034699;28;20372;-75
2022/04/05 10:49:39;;;;;;;2.00;1.80;;;13.30;71.70;;;;;;5015155;28;20022;-75
2022/04/05 10:52:20;;;;;;;3.35;2.20;;;13.30;71.70;;;;;;5038038;28;20029;-75
2022/04/05 10:54:51;;;;;;;3.38;2.22;;;13.40;71.70;;;;;;5029084;28;20029;-75
2022/04/05 10:57:26;;;;;;;3.83;2.22;;;13.40;71.70;;;;;;5018454;28;20037;-74
2022/04/05 10:59:56;;;;;;;;;;;13.40;71.70;;;;;;5032563;28;20034;-75
2022/04/05 11:02:55;;;;;;;2.33;2.05;;;13.40;71.60;;;;;;5018727;28;19939;-76
2022/04/05 11:05:27;;;;;;;3.00;1.90;;;13.40;71.60;;;;;;5035838;28;20377;-75
2022/04/05 11:08:00;;;;;;;3.10;2.13;;;13.40;71.60;;;;;;5040405;28;20518;-76
2022/04/05 11:10:29;;;;;;;3.00;2.20;;;13.40;72.30;;;;;;5049131;28;20182;-75
2022/04/05 11:13:31;;;;;;;3.03;2.10;;;13.50;71.70;;;;;;5041433;28;20060;-74
2022/04/05 11:15:57;;;;;;;3.45;2.17;;;13.50;71.90;;;;;;5009616;28;20033;-75
2022/04/05 11:18:25;;;;;;;3.10;2.30;;;13.50;71.70;;;;;;5018612;28;20131;-75
2022/04/05 11:20:53;;;;;;;3.42;2.50;;;13.50;71.70;;;;;;5026786;28;20504;-74
2022/04/05 11:23:36;;;;;;;2.78;2.10;;;13.50;71.70;;;;;;5035464;28;20111;-75
2022/04/05 11:26:24;;;;;;;2.88;2.10;;;13.60;71.70;;;;;;5043389;28;20060;-74
2022/04/05 11:28:50;;;;;;;3.75;2.22;;;13.60;71.80;;;;;;5027375;28;20075;-73
2022/04/05 11:31:29;;;;;;;2.47;2.00;;;13.60;71.60;;;;;;5017085;28;20463;-73
2022/04/05 11:33:55;;;;;;;2.90;2.10;;;13.60;71.70;;;;;;5033954;28;20064;-74
2022/04/05 11:36:25;;;;;;;2.88;2.00;;;13.60;72.30;;;;;;5031691;28;20057;-75
2022/04/05 11:38:56;;;;;;;2.35;1.92;;;13.60;71.70;;;;;;5014854;28;20034;-73
2022/04/05 11:41:30;;;;;;;3.13;2.28;;;13.60;71.60;;;;;;5034330;28;20034;-76
2022/04/05 11:43:57;;;;;;;2.90;2.30;;;13.60;71.60;;;;;;5015490;28;20025;-74
2022/04/05 11:46:28;;;;;;;3.42;2.30;;;13.70;71.60;;;;;;5051987;28;20029;-74
2022/04/05 11:49:05;;;;;;;3.30;2.50;;;13.70;71.60;;;;;;5033042;28;20060;-74
2022/04/05 11:51:34;;;;;;;3.55;2.22;;;13.70;71.70;;;;;;5032560;28;20049;-74
2022/04/05 11:54:12;;;;;;;2.80;2.30;;;13.80;71.60;;;;;;5034098;28;20044;-74
2022/04/05 11:56:42;;;;;;;3.10;2.20;;;13.80;71.70;;;;;;5036331;28;20359;-73
2022/04/05 11:59:13;;;;;;;3.85;2.33;;;13.80;71.60;;;;;;5035616;28;20024;-74
2022/04/05 12:01:40;;;;;;;3.25;2.55;;;13.80;71.60;;;;;;5039353;28;20116;-75
2022/04/05 12:04:14;;;;;;;3.15;2.28;;;13.80;71.60;;;;;;5038426;28;20028;-77
2022/04/05 12:06:42;;;;;;;3.03;2.38;;;13.80;71.60;;;;;;5039095;28;20180;-75
2022/04/05 12:09:18;;;;;;;3.03;2.20;;;13.90;71.60;;;;;;5041298;28;20155;-75
2022/04/05 12:11:46;;;;;;;3.22;2.47;;;13.90;71.60;;;;;;5041189;28;20029;-76
2022/04/05 12:14:14;;;;;;;3.95;2.60;;;13.90;71.60;;;;;;5031750;28;20099;-77
2022/04/05 12:16:48;;;;;;;3.88;2.40;;;13.90;71.50;;;;;;5019083;28;20041;-78
2022/04/05 12:19:28;;;;;;;2.45;2.08;;;14.00;71.60;;;;;;5030067;28;20040;-76
2022/04/05 12:22:02;;;;;;;2.65;1.90;;;14.00;71.60;;;;;;5038610;28;20486;-77
2022/04/05 12:24:30;;;;;;;2.55;2.15;;;14.00;71.50;;;;;;5040184;28;20794;-77
2022/04/05 12:26:57;;;;;;;2.95;2.35;;;14.00;71.50;;;;;;5039754;28;20033;-78
2022/04/05 12:29:24;;;;;;;3.15;2.28;;;14.10;71.60;;;;;;5032339;28;20358;-80
2022/04/05 12:31:50;;;;;;;3.30;2.17;;;14.10;71.60;;;;;;5015067;28;20030;-76
2022/04/05 12:34:18;;;;;;;3.33;2.10;;;14.10;71.50;;;;;;5037124;28;20065;-77
2022/04/05 12:36:54;;;;;;;2.90;2.28;;;14.20;71.60;;;;;;5025941;28;20425;-78
2022/04/05 12:39:29;;;;;;;3.70;2.47;;;14.20;71.60;;;;;;5026539;28;20497;-77
2022/04/05 12:41:57;;;;;;;2.90;2.15;;;14.20;71.60;;;;;;5036671;28;20021;-77
2022/04/05 12:44:28;;;;;;;3.30;2.30;;;14.20;71.50;;;;;;5029922;28;20160;-78
2022/04/05 12:46:59;;;;;;;2.63;2.38;;;14.30;71.50;;;;;;5048761;28;20048;-76
2022/04/05 12:49:34;;;;;;;2.53;2.08;;;14.30;71.50;;;;;;5038732;28;20091;-76
2022/04/05 12:52:15;;;;;;;2.53;2.05;;;14.30;71.50;;;;;;5030938;28;20018;-76
2022/04/05 12:54:51;;;;;;;3.10;1.80;;;14.30;71.50;;;;;;5037387;28;20045;-77